Time;durP1;ratioP1;P1;durP2;ratioP2;P2;SDS_P1;SDS_P2;PMS_P1;PMS_P2;Temp;Humidity;BMP_temperature;BMP_pressure;BME280_temperature;BME280_humidity;BME280_pressure;Samples;Min_cycle;Max_cycle;Signal;HPM_P1;HPM_P2
2021/11/11 00:02:00;;;;;;;23.98;14.32;;;;;;;;;;5109491;28;20486;-65
2021/11/11 00:04:26;;;;;;;27.10;14.68;;;;;;;;;;5110480;28;20120;-65
2021/11/11 00:06:52;;;;;;;25.45;15.00;;;;;;;;;;5111926;28;20039;-65
2021/11/11 00:09:19;;;;;;;30.45;14.93;;;;;;;;;;5111358;28;20024;-65
2021/11/11 00:11:45;;;;;;;23.05;14.40;;;;;;;;;;5109816;28;20391;-65
2021/11/11 00:14:11;;;;;;;30.08;13.82;;;;;;;;;;5109384;28;20099;-65
2021/11/11 00:16:37;;;;;;;24.42;13.32;;;;;;;;;;5109678;28;20033;-65
2021/11/11 00:19:03;;;;;;;26.38;15.13;;;;;;;;;;5110564;28;20104;-65
2021/11/11 00:21:30;;;;;;;26.15;15.07;;;;;;;;;;5112350;28;20051;-65
2021/11/11 00:23:56;;;;;;;24.67;13.77;;;;;;;;;;5109760;28;20020;-65
2021/11/11 00:26:22;;;;;;;31.63;14.27;;;;;;;;;;5109679;28;20034;-65
2021/11/11 00:28:49;;;;;;;24.52;13.40;;;;;;;;;;5109143;28;20565;-65
2021/11/11 00:31:15;;;;;;;28.55;13.50;;;;;;;;;;5108959;28;20036;-65
2021/11/11 00:33:41;;;;;;;25.05;13.55;;;;;;;;;;5112463;28;20026;-65
2021/11/11 00:36:07;;;;;;;26.40;13.68;;;;;;;;;;5110190;28;20080;-65
2021/11/11 00:38:33;;;;;;;26.92;13.18;;;;;;;;;;5109243;28;20023;-65
2021/11/11 00:40:59;;;;;;;24.90;13.05;;;;;;;;;;5109000;28;20422;-65
2021/11/11 00:43:25;;;;;;;21.50;12.00;;;;;;;;;;5109183;28;20023;-65
2021/11/11 00:45:51;;;;;;;25.30;12.13;;;;;;;;;;5110729;28;20062;-65
2021/11/11 00:48:17;;;;;;;23.15;12.15;;;;;;;;;;5110497;28;20360;-64
2021/11/11 00:50:43;;;;;;;22.83;12.93;;;;;;;;;;5109184;28;20040;-64
2021/11/11 00:53:09;;;;;;;22.10;13.45;;;;;;;;;;5109242;28;20028;-64
2021/11/11 00:55:37;;;;;;;24.85;14.45;;;;;;;;;;5108734;28;20023;-64
2021/11/11 00:58:03;;;;;;;23.60;13.35;;;;;;;;;;5108300;28;20027;-65
2021/11/11 01:00:29;;;;;;;22.73;11.80;;;;;;;;;;5111492;28;20030;-64
2021/11/11 01:02:56;;;;;;;24.70;11.75;;;;;;;;;;5109169;28;20073;-65
2021/11/11 01:05:22;;;;;;;26.33;13.00;;;;;;;;;;5108817;28;20027;-65
2021/11/11 01:07:50;;;;;;;26.08;13.55;;;;;;;;;;5108523;28;20020;-65
2021/11/11 01:10:17;;;;;;;24.95;14.15;;;;;;;;;;5109082;28;20046;-65
2021/11/11 01:12:44;;;;;;;25.67;13.13;;;;;;;;;;5111357;28;20258;-65
2021/11/11 01:15:12;;;;;;;24.00;12.82;;;;;;;;;;5110520;28;20024;-65
2021/11/11 01:17:38;;;;;;;22.95;12.05;;;;;;;;;;5108980;28;20032;-65
2021/11/11 01:20:05;;;;;;;22.95;11.32;;;;;;;;;;5108849;28;20082;-65
2021/11/11 01:22:31;;;;;;;26.02;11.38;;;;;;;;;;5108904;28;20019;-65
2021/11/11 01:24:58;;;;;;;21.48;12.02;;;;;;;;;;5109895;28;20031;-65
2021/11/11 01:27:24;;;;;;;26.23;13.13;;;;;;;;;;5109496;28;20435;-64
2021/11/11 01:29:50;;;;;;;24.25;12.40;;;;;;;;;;5108066;28;20028;-65
2021/11/11 01:32:16;;;;;;;22.67;11.57;;;;;;;;;;5108488;28;20506;-65
2021/11/11 01:34:42;;;;;;;24.83;12.07;;;;;;;;;;5108390;28;20069;-65
2021/11/11 01:37:08;;;;;;;23.20;11.50;;;;;;;;;;5108673;28;20023;-66
2021/11/11 01:39:34;;;;;;;25.58;11.35;;;;;;;;;;5111705;28;20071;-65
2021/11/11 01:42:00;;;;;;;21.45;11.80;;;;;;;;;;5108500;28;20023;-65
2021/11/11 01:44:26;;;;;;;22.67;10.75;;;;;;;;;;5108386;28;20036;-65
2021/11/11 01:46:52;;;;;;;26.75;11.20;;;;;;;;;;5108358;28;20023;-65
2021/11/11 01:49:18;;;;;;;22.35;11.05;;;;;;;;;;5108756;28;20050;-65
2021/11/11 01:51:47;;;;;;;20.35;10.38;;;;;;;;;;5110433;28;20479;-65
2021/11/11 01:54:13;;;;;;;18.35;10.43;;;;;;;;;;5115470;28;20063;-65
2021/11/11 01:56:39;;;;;;;20.20;10.88;;;;;;;;;;5112656;27;20046;-65
2021/11/11 01:59:06;;;;;;;20.77;10.40;;;;;;;;;;5112333;28;20023;-65
2021/11/11 02:01:32;;;;;;;18.30;10.40;;;;;;;;;;5112464;28;20073;-66
2021/11/11 02:03:58;;;;;;;20.52;11.95;;;;;;;;;;5113969;28;20039;-65
2021/11/11 02:06:24;;;;;;;17.63;10.50;;;;;;;;;;5113757;28;20503;-65
2021/11/11 02:08:50;;;;;;;23.20;11.15;;;;;;;;;;5112537;28;20032;-66
2021/11/11 02:11:16;;;;;;;23.73;11.73;;;;;;;;;;5112168;28;20035;-65
2021/11/11 02:13:42;;;;;;;21.15;11.57;;;;;;;;;;5111870;28;20024;-65
2021/11/11 02:16:09;;;;;;;22.70;12.32;;;;;;;;;;5111720;28;20027;-65
2021/11/11 02:18:35;;;;;;;23.10;11.98;;;;;;;;;;5111610;28;20027;-65
2021/11/11 02:21:01;;;;;;;24.27;11.43;;;;;;;;;;5112077;28;20028;-65
2021/11/11 02:23:28;;;;;;;23.45;11.98;;;;;;;;;;5112093;28;20035;-65
2021/11/11 02:25:54;;;;;;;22.15;11.60;;;;;;;;;;5111772;28;20104;-65
2021/11/11 02:28:20;;;;;;;23.52;11.23;;;;;;;;;;5111940;28;20068;-65
2021/11/11 02:30:48;;;;;;;20.40;11.80;;;;;;;;;;5113786;28;20094;-65
2021/11/11 02:33:17;;;;;;;24.17;13.18;;;;;;;;;;5114629;28;20085;-65
2021/11/11 02:35:43;;;;;;;21.95;11.43;;;;;;;;;;5111575;28;20111;-65
2021/11/11 02:38:09;;;;;;;24.17;12.50;;;;;;;;;;5111883;28;20039;-65
2021/11/11 02:40:35;;;;;;;22.98;11.82;;;;;;;;;;5111548;28;20028;-66
2021/11/11 02:43:02;;;;;;;20.83;9.73;;;;;;;;;;5112402;28;20074;-65
2021/11/11 02:45:31;;;;;;;17.27;9.75;;;;;;;;;;5114244;28;20051;-65
2021/11/11 02:47:57;;;;;;;21.10;9.52;;;;;;;;;;5111573;28;20030;-65
2021/11/11 02:50:24;;;;;;;19.30;9.82;;;;;;;;;;5111198;28;20089;-65
2021/11/11 02:52:50;;;;;;;16.58;9.02;;;;;;;;;;5111559;28;20479;-65
2021/11/11 02:55:17;;;;;;;19.10;9.00;;;;;;;;;;5110821;28;20074;-65
2021/11/11 02:57:43;;;;;;;17.58;9.15;;;;;;;;;;5113913;28;20031;-65
2021/11/11 03:00:11;;;;;;;19.50;9.63;;;;;;;;;;5112425;28;20106;-65
2021/11/11 03:02:38;;;;;;;20.42;9.65;;;;;;;;;;5110641;28;20475;-65
2021/11/11 03:05:05;;;;;;;26.15;10.07;;;;;;;;;;5111204;28;20062;-64
2021/11/11 03:07:32;;;;;;;20.40;9.85;;;;;;;;;;5111333;28;20036;-64
2021/11/11 03:09:58;;;;;;;19.92;10.15;;;;;;;;;;5112524;28;20028;-65
2021/11/11 03:12:24;;;;;;;17.15;9.50;;;;;;;;;;5113723;27;20035;-66
2021/11/11 03:14:52;;;;;;;18.45;9.48;;;;;;;;;;5111140;28;20031;-65
2021/11/11 03:17:18;;;;;;;19.65;9.88;;;;;;;;;;5110889;28;20063;-66
2021/11/11 03:19:44;;;;;;;18.67;9.38;;;;;;;;;;5111030;28;20124;-66
2021/11/11 03:22:21;;;;;;;17.33;9.00;;;;;;;;;;5110459;28;20027;-65
2021/11/11 03:24:49;;;;;;;17.10;9.23;;;;;;;;;;5112907;28;20110;-66
2021/11/11 03:27:15;;;;;;;17.52;9.25;;;;;;;;;;5111847;28;20543;-66
2021/11/11 03:29:41;;;;;;;16.90;8.73;;;;;;;;;;5110952;28;20107;-65
2021/11/11 03:32:07;;;;;;;19.80;9.38;;;;;;;;;;5110586;28;20130;-65
2021/11/11 03:34:34;;;;;;;17.50;9.18;;;;;;;;;;5108673;28;20444;-65
2021/11/11 03:37:00;;;;;;;16.23;9.05;;;;;;;;;;5112066;28;20046;-65
2021/11/11 03:39:27;;;;;;;17.35;7.97;;;;;;;;;;5112518;28;20095;-65
2021/11/11 03:41:53;;;;;;;17.48;8.80;;;;;;;;;;5110672;28;20530;-65
2021/11/11 03:44:20;;;;;;;15.73;8.32;;;;;;;;;;5110640;28;20394;-65
2021/11/11 03:46:47;;;;;;;17.13;8.57;;;;;;;;;;5110662;28;20061;-65
2021/11/11 03:49:13;;;;;;;16.85;9.38;;;;;;;;;;5111174;28;20491;-66
2021/11/11 03:51:40;;;;;;;15.10;8.63;;;;;;;;;;5113741;28;20170;-66
2021/11/11 03:54:06;;;;;;;23.38;9.75;;;;;;;;;;5112077;28;20046;-66
2021/11/11 03:56:34;;;;;;;17.50;9.70;;;;;;;;;;5110331;28;20024;-65
2021/11/11 03:59:00;;;;;;;17.15;8.80;;;;;;;;;;5110557;28;20023;-66
2021/11/11 04:01:26;;;;;;;14.88;8.80;;;;;;;;;;5109243;28;20028;-66
2021/11/11 04:03:52;;;;;;;16.17;8.38;;;;;;;;;;5112896;28;20091;-65
2021/11/11 04:06:18;;;;;;;20.75;9.10;;;;;;;;;;5111194;28;20467;-65
2021/11/11 04:08:43;;;;;;;15.60;8.35;;;;;;;;;;5109956;28;20020;-66
2021/11/11 04:11:10;;;;;;;17.83;8.02;;;;;;;;;;5110039;28;20526;-65
2021/11/11 04:13:36;;;;;;;16.20;8.13;;;;;;;;;;5109133;28;20027;-65
2021/11/11 04:16:02;;;;;;;16.13;8.95;;;;;;;;;;5110112;28;20036;-65
2021/11/11 04:18:28;;;;;;;17.08;9.68;;;;;;;;;;5112464;28;20043;-65
2021/11/11 04:20:54;;;;;;;18.08;8.75;;;;;;;;;;5109573;28;20035;-65
2021/11/11 04:23:22;;;;;;;22.27;9.55;;;;;;;;;;5109546;28;20482;-66
2021/11/11 04:25:57;;;;;;;23.48;9.75;;;;;;;;;;5109856;28;20449;-67
2021/11/11 04:28:31;;;;;;;17.77;8.35;;;;;;;;;;5109668;28;20034;-66
2021/11/11 04:31:01;;;;;;;13.63;8.57;;;;;;;;;;5110702;28;20157;-66
2021/11/11 04:33:28;;;;;;;16.05;8.85;;;;;;;;;;5109085;28;20114;-67
2021/11/11 04:35:59;;;;;;;18.00;8.30;;;;;;;;;;5111210;28;20020;-65
2021/11/11 04:38:51;;;;;;;16.67;7.90;;;;;;;;;;5111365;28;20019;-67
2021/11/11 05:04:49;;;;;;;18.98;8.73;;;;;;;;;;5109121;28;20039;-66
2021/11/11 05:07:15;;;;;;;15.43;8.75;;;;;;;;;;5108873;28;20016;-66
2021/11/11 05:09:42;;;;;;;21.73;9.68;;;;;;;;;;5111821;28;20106;-66
2021/11/11 05:12:12;;;;;;;16.58;8.07;;;;;;;;;;5109524;28;20043;-66
2021/11/11 05:14:38;;;;;;;15.10;8.20;;;;;;;;;;5108825;28;20027;-66
2021/11/11 05:17:04;;;;;;;14.85;8.00;;;;;;;;;;5108253;28;20111;-66
2021/11/11 05:19:30;;;;;;;19.40;9.07;;;;;;;;;;5108506;28;20103;-66
2021/11/11 05:21:56;;;;;;;19.50;9.60;;;;;;;;;;5109259;28;20516;-67
2021/11/11 05:24:22;;;;;;;21.60;9.57;;;;;;;;;;5110034;28;20032;-67
2021/11/11 05:26:48;;;;;;;20.75;9.10;;;;;;;;;;5108241;28;20059;-67
2021/11/11 05:29:14;;;;;;;21.55;8.98;;;;;;;;;;5108815;28;20362;-67
2021/11/11 05:31:40;;;;;;;16.35;9.00;;;;;;;;;;5107673;28;20039;-67
2021/11/11 05:34:06;;;;;;;21.45;9.43;;;;;;;;;;5109095;28;20043;-67
2021/11/11 05:36:32;;;;;;;16.23;8.73;;;;;;;;;;5111482;28;20059;-67
2021/11/11 05:38:58;;;;;;;20.27;9.30;;;;;;;;;;5108417;28;20106;-67
2021/11/11 05:41:24;;;;;;;17.75;8.63;;;;;;;;;;5107226;28;20034;-67
2021/11/11 05:43:50;;;;;;;13.60;8.20;;;;;;;;;;5108370;28;20064;-66
2021/11/11 05:46:17;;;;;;;21.25;9.30;;;;;;;;;;5108710;28;20167;-66
2021/11/11 05:48:43;;;;;;;21.02;8.88;;;;;;;;;;5111617;28;20607;-68
2021/11/11 05:51:09;;;;;;;15.93;8.65;;;;;;;;;;5109038;28;20122;-67
2021/11/11 05:53:34;;;;;;;15.68;8.45;;;;;;;;;;5108188;28;20049;-67
2021/11/11 05:56:00;;;;;;;16.67;8.25;;;;;;;;;;5108510;28;20567;-66
2021/11/11 05:58:27;;;;;;;22.30;9.70;;;;;;;;;;5108037;28;20024;-65
2021/11/11 06:00:53;;;;;;;24.05;9.63;;;;;;;;;;5110971;28;20047;-65
2021/11/11 06:03:19;;;;;;;19.45;9.68;;;;;;;;;;5108469;28;20024;-66
2021/11/11 06:05:45;;;;;;;20.70;10.70;;;;;;;;;;5107814;28;20031;-65
2021/11/11 06:08:11;;;;;;;14.98;9.27;;;;;;;;;;5107999;28;20044;-65
2021/11/11 06:10:38;;;;;;;16.45;9.23;;;;;;;;;;5108093;28;20036;-65
2021/11/11 06:13:04;;;;;;;24.00;9.80;;;;;;;;;;5109334;28;20024;-65
2021/11/11 06:15:30;;;;;;;15.90;8.80;;;;;;;;;;5109392;28;20053;-66
2021/11/11 06:17:58;;;;;;;19.73;9.25;;;;;;;;;;5108426;28;20023;-65
2021/11/11 06:20:31;;;;;;;18.63;10.00;;;;;;;;;;5107686;28;20027;-65
2021/11/11 06:22:58;;;;;;;18.08;9.98;;;;;;;;;;5108350;28;20173;-65
2021/11/11 06:25:24;;;;;;;20.17;9.52;;;;;;;;;;5108049;28;20047;-65
2021/11/11 06:27:50;;;;;;;18.92;10.23;;;;;;;;;;5110577;28;20024;-65
2021/11/11 06:30:17;;;;;;;22.15;10.20;;;;;;;;;;5108807;28;20383;-65
2021/11/11 06:32:43;;;;;;;22.77;10.50;;;;;;;;;;5108190;28;20042;-66
2021/11/11 06:35:09;;;;;;;21.83;10.32;;;;;;;;;;5102044;28;20384;-65
2021/11/11 06:37:37;;;;;;;21.95;10.32;;;;;;;;;;5107180;28;20034;-66
2021/11/11 06:40:04;;;;;;;23.85;11.05;;;;;;;;;;5112676;28;20027;-65
2021/11/11 06:42:30;;;;;;;20.48;10.00;;;;;;;;;;5114560;28;20383;-65
2021/11/11 06:44:56;;;;;;;23.38;10.48;;;;;;;;;;5111797;28;20024;-66
2021/11/11 06:47:23;;;;;;;27.20;10.63;;;;;;;;;;5110987;28;20020;-65
2021/11/11 06:49:49;;;;;;;23.83;10.68;;;;;;;;;;5111243;28;20478;-65
2021/11/11 06:52:15;;;;;;;21.02;9.68;;;;;;;;;;5111409;28;20032;-66
2021/11/11 06:54:42;;;;;;;20.85;9.55;;;;;;;;;;5114443;28;20431;-65
2021/11/11 06:57:08;;;;;;;25.20;10.07;;;;;;;;;;5111910;28;20112;-65
2021/11/11 06:59:34;;;;;;;22.10;9.85;;;;;;;;;;5111477;28;20030;-65
2021/11/11 07:02:00;;;;;;;17.67;9.40;;;;;;;;;;5111252;28;20027;-65
2021/11/11 07:04:26;;;;;;;17.77;10.07;;;;;;;;;;5111157;28;20020;-65
2021/11/11 07:06:53;;;;;;;20.42;9.20;;;;;;;;;;5112321;28;20483;-66
2021/11/11 07:09:19;;;;;;;34.53;10.60;;;;;;;;;;5107027;28;20439;-65
2021/11/11 07:11:45;;;;;;;24.98;12.80;;;;;;;;;;5108441;28;20046;-65
2021/11/11 07:14:12;;;;;;;25.95;12.57;;;;;;;;;;5111073;28;20479;-65
2021/11/11 07:16:39;;;;;;;25.30;12.45;;;;;;;;;;5110655;28;20399;-65
2021/11/11 07:19:05;;;;;;;20.23;9.98;;;;;;;;;;5111373;28;20157;-66
2021/11/11 07:21:31;;;;;;;25.33;11.50;;;;;;;;;;5113821;28;20080;-66
2021/11/11 07:23:57;;;;;;;21.67;10.88;;;;;;;;;;5111007;28;20028;-66
2021/11/11 07:26:25;;;;;;;19.55;10.85;;;;;;;;;;5110821;28;20035;-65
2021/11/11 07:28:51;;;;;;;25.27;12.27;;;;;;;;;;5110276;28;20394;-65
2021/11/11 07:31:22;;;;;;;21.08;11.55;;;;;;;;;;5110633;28;20040;-65
2021/11/11 07:33:48;;;;;;;26.77;12.48;;;;;;;;;;5112627;28;20020;-66
2021/11/11 07:36:14;;;;;;;27.42;12.48;;;;;;;;;;5112070;28;20052;-66
2021/11/11 07:38:41;;;;;;;26.45;12.60;;;;;;;;;;5110815;28;20023;-66
2021/11/11 07:41:07;;;;;;;23.98;12.07;;;;;;;;;;5110384;28;20051;-66
2021/11/11 07:43:33;;;;;;;23.25;12.88;;;;;;;;;;5111966;28;20094;-66
2021/11/11 07:46:04;;;;;;;23.00;11.68;;;;;;;;;;5112161;28;20063;-66
2021/11/11 07:48:30;;;;;;;21.67;12.27;;;;;;;;;;5113091;28;20016;-66
2021/11/11 07:50:59;;;;;;;24.77;12.50;;;;;;;;;;5110261;28;20038;-66
2021/11/11 07:53:26;;;;;;;23.67;11.73;;;;;;;;;;5109989;28;20429;-66
2021/11/11 07:55:52;;;;;;;25.25;11.30;;;;;;;;;;5110100;28;20103;-66
2021/11/11 07:58:18;;;;;;;23.15;12.75;;;;;;;;;;5110259;28;20032;-66
2021/11/11 08:00:44;;;;;;;23.17;11.18;;;;;;;;;;5112535;28;20475;-66
2021/11/11 08:03:12;;;;;;;19.58;11.10;;;;;;;;;;5111177;28;20099;-66
2021/11/11 08:05:38;;;;;;;23.08;11.60;;;;;;;;;;5110238;28;20032;-66
2021/11/11 08:08:05;;;;;;;21.92;10.88;;;;;;;;;;5109578;28;20023;-66
2021/11/11 08:10:31;;;;;;;21.15;12.60;;;;;;;;;;5109729;28;20044;-66
2021/11/11 08:12:57;;;;;;;22.48;11.95;;;;;;;;;;5111918;28;20071;-66
2021/11/11 08:15:24;;;;;;;22.80;12.07;;;;;;;;;;5111581;28;20024;-66
2021/11/11 08:17:50;;;;;;;27.23;12.82;;;;;;;;;;5109140;28;20031;-66
2021/11/11 08:20:16;;;;;;;23.55;12.77;;;;;;;;;;5109988;28;20019;-66
2021/11/11 08:22:43;;;;;;;19.63;11.32;;;;;;;;;;5111067;28;20019;-66
2021/11/11 08:25:10;;;;;;;19.23;10.95;;;;;;;;;;5109980;28;20019;-66
2021/11/11 08:27:37;;;;;;;20.48;10.50;;;;;;;;;;5108184;28;20471;-66
2021/11/11 08:30:04;;;;;;;20.02;10.10;;;;;;;;;;5109583;28;20027;-66
2021/11/11 08:32:31;;;;;;;19.77;9.73;;;;;;;;;;5109478;28;20057;-66
2021/11/11 08:34:57;;;;;;;22.08;10.88;;;;;;;;;;5109378;28;20264;-66
2021/11/11 08:37:23;;;;;;;21.17;10.98;;;;;;;;;;5109427;28;20032;-66
2021/11/11 08:39:49;;;;;;;21.10;11.10;;;;;;;;;;5111304;28;20027;-66
2021/11/11 08:42:16;;;;;;;20.50;10.63;;;;;;;;;;5110427;28;20581;-66
2021/11/11 08:44:43;;;;;;;17.27;10.75;;;;;;;;;;5109192;28;20064;-66
2021/11/11 08:47:10;;;;;;;21.45;10.88;;;;;;;;;;5108558;28;20027;-66
2021/11/11 08:49:36;;;;;;;18.98;11.55;;;;;;;;;;5108948;28;20046;-66
2021/11/11 08:52:02;;;;;;;22.35;10.57;;;;;;;;;;5110377;28;20071;-66
2021/11/11 08:54:28;;;;;;;18.90;10.75;;;;;;;;;;5111686;28;20024;-66
2021/11/11 08:56:55;;;;;;;23.85;11.50;;;;;;;;;;5108934;28;20038;-65
2021/11/11 08:59:21;;;;;;;22.05;11.95;;;;;;;;;;5108655;28;20019;-66
2021/11/11 09:01:48;;;;;;;19.05;11.93;;;;;;;;;;5109983;28;20651;-66
2021/11/11 09:04:14;;;;;;;20.55;11.57;;;;;;;;;;5109255;28;22698;-66
2021/11/11 09:06:41;;;;;;;17.65;10.35;;;;;;;;;;5112192;28;20386;-66
2021/11/11 09:09:07;;;;;;;18.67;9.60;;;;;;;;;;5109150;28;20605;-66
2021/11/11 09:11:33;;;;;;;19.60;9.10;;;;;;;;;;5108885;28;20039;-66
2021/11/11 09:14:01;;;;;;;16.08;8.82;;;;;;;;;;5108145;28;20027;-66
2021/11/11 09:16:27;;;;;;;17.13;9.05;;;;;;;;;;5107282;28;20336;-66
2021/11/11 09:18:53;;;;;;;16.27;8.73;;;;;;;;;;5111433;28;20074;-65
2021/11/11 09:21:20;;;;;;;14.80;7.57;;;;;;;;;;5110146;28;20086;-66
2021/11/11 09:23:47;;;;;;;15.90;8.30;;;;;;;;;;5108800;28;20049;-66
2021/11/11 09:26:13;;;;;;;14.52;7.63;;;;;;;;;;5108149;28;20031;-66
2021/11/11 09:28:40;;;;;;;14.18;7.78;;;;;;;;;;5108110;28;20023;-65
2021/11/11 09:31:07;;;;;;;12.68;7.38;;;;;;;;;;5109187;28;20055;-65
2021/11/11 09:33:33;;;;;;;12.70;7.75;;;;;;;;;;5111922;28;20096;-66
2021/11/11 09:35:59;;;;;;;14.40;7.85;;;;;;;;;;5108748;28;20032;-65
2021/11/11 09:38:25;;;;;;;13.50;7.95;;;;;;;;;;5108610;28;20049;-65
2021/11/11 09:40:52;;;;;;;14.63;8.20;;;;;;;;;;5109118;28;20126;-65
2021/11/11 09:43:18;;;;;;;16.40;7.30;;;;;;;;;;5107149;28;20036;-66
2021/11/11 09:45:45;;;;;;;12.93;6.05;;;;;;;;;;5111323;28;20023;-65
2021/11/11 09:48:14;;;;;;;14.13;6.45;;;;;;;;;;5111000;28;20020;-65
2021/11/11 09:50:40;;;;;;;13.05;6.65;;;;;;;;;;5108589;28;20379;-65
2021/11/11 09:53:12;;;;;;;11.48;7.45;;;;;;;;;;5107875;28;20114;-65
2021/11/11 09:58:35;;;;;;;13.55;6.78;;;;;;;;;;5094008;28;20066;-65
2021/11/11 10:01:05;;;;;;;12.00;6.60;;;;;;;;;;5109733;28;20121;-65
2021/11/11 10:03:31;;;;;;;14.00;6.10;;;;;;;;;;5111355;28;20024;-65
2021/11/11 10:05:57;;;;;;;13.35;6.72;;;;;;;;;;5107463;28;20024;-65
2021/11/11 10:08:30;;;;;;;12.07;7.25;;;;;;;;;;5108326;28;20031;-65
2021/11/11 10:10:56;;;;;;;12.80;6.70;;;;;;;;;;5107553;28;20036;-65
2021/11/11 10:13:22;;;;;;;14.32;6.90;;;;;;;;;;5109412;28;20035;-66
2021/11/11 10:16:07;;;;;;;19.67;6.88;;;;;;;;;;5114628;28;20035;-65
2021/11/11 10:18:51;;;;;;;11.75;6.28;;;;;;;;;;5110144;28;20507;-66
2021/11/11 10:21:25;;;;;;;12.85;6.85;;;;;;;;;;5114937;28;20059;-66
2021/11/11 10:23:52;;;;;;;9.73;6.40;;;;;;;;;;5112144;28;20032;-66
2021/11/11 10:26:38;;;;;;;10.18;5.32;;;;;;;;;;5111387;28;20028;-66
2021/11/11 10:29:05;;;;;;;11.25;5.30;;;;;;;;;;5112153;28;20027;-65
2021/11/11 10:31:31;;;;;;;10.68;5.90;;;;;;;;;;5111570;28;20414;-66
2021/11/11 10:34:07;;;;;;;10.73;5.20;;;;;;;;;;5113437;28;20099;-66
2021/11/11 10:36:44;;;;;;;11.43;5.25;;;;;;;;;;5114618;28;20103;-66
2021/11/11 10:39:31;;;;;;;10.48;5.88;;;;;;;;;;5112600;28;20047;-65
2021/11/11 10:41:58;;;;;;;10.50;5.90;;;;;;;;;;5111712;28;20099;-66
2021/11/11 10:44:30;;;;;;;11.18;5.32;;;;;;;;;;5110968;28;20027;-66
2021/11/11 10:47:00;;;;;;;10.60;5.47;;;;;;;;;;5111266;28;20028;-65
2021/11/11 10:49:37;;;;;;;8.88;5.18;;;;;;;;;;5111726;28;20020;-65
2021/11/11 10:52:23;;;;;;;10.05;4.70;;;;;;;;;;5112505;28;20110;-65
2021/11/11 10:55:15;;;;;;;8.88;4.25;;;;;;;;;;5110966;28;20102;-65
2021/11/11 10:57:44;;;;;;;9.85;4.88;;;;;;;;;;5079463;28;20039;-65
2021/11/11 11:00:19;;;;;;;8.57;4.93;;;;;;;;;;5112334;28;20072;-65
2021/11/11 11:02:52;;;;;;;10.57;5.28;;;;;;;;;;5111337;28;20390;-66
2021/11/11 11:05:19;;;;;;;9.15;4.53;;;;;;;;;;5109919;28;20524;-66
2021/11/11 11:07:48;;;;;;;7.93;4.65;;;;;;;;;;5111293;28;20037;-66
2021/11/11 11:10:17;;;;;;;9.38;4.53;;;;;;;;;;5110367;28;20408;-66
2021/11/11 11:12:44;;;;;;;13.43;4.68;;;;;;;;;;5113709;28;20028;-66
2021/11/11 11:15:10;;;;;;;6.67;3.90;;;;;;;;;;5111956;28;20536;-65
2021/11/11 11:17:37;;;;;;;8.30;3.90;;;;;;;;;;5110740;28;20031;-66
2021/11/11 11:20:21;;;;;;;7.97;3.92;;;;;;;;;;5110457;28;20131;-66
2021/11/11 11:22:47;;;;;;;12.93;4.55;;;;;;;;;;5110709;28;20051;-66
2021/11/11 11:25:13;;;;;;;9.18;4.10;;;;;;;;;;5108964;28;20390;-66
2021/11/11 11:27:39;;;;;;;9.02;4.18;;;;;;;;;;5114178;28;20020;-66
2021/11/11 11:30:11;;;;;;;8.43;4.15;;;;;;;;;;5110397;28;20106;-66
2021/11/11 11:32:42;;;;;;;11.23;4.63;;;;;;;;;;5109909;28;20092;-66
2021/11/11 11:35:08;;;;;;;11.45;4.20;;;;;;;;;;5110733;28;20501;-64
2021/11/11 11:37:35;;;;;;;8.95;4.75;;;;;;;;;;5110483;28;20035;-64
2021/11/11 11:40:01;;;;;;;7.43;3.95;;;;;;;;;;5111623;28;20031;-64
2021/11/11 11:42:36;;;;;;;8.68;4.03;;;;;;;;;;5112660;28;20030;-64
2021/11/11 11:45:05;;;;;;;6.88;3.75;;;;;;;;;;5109445;28;20024;-64
2021/11/11 11:47:47;;;;;;;10.57;4.10;;;;;;;;;;5110267;28;20033;-64
2021/11/11 11:50:22;;;;;;;6.90;3.65;;;;;;;;;;5110044;28;20016;-64
2021/11/11 11:52:52;;;;;;;7.10;4.00;;;;;;;;;;5110000;28;20039;-64
2021/11/11 11:58:04;;;;;;;6.45;3.70;;;;;;;;;;5112331;28;20032;-64
2021/11/11 12:11:24;;;;;;;8.40;4.25;;;;;;;;;;5109520;28;20137;-64
2021/11/11 12:14:03;;;;;;;8.38;4.07;;;;;;;;;;5109771;28;20019;-64
2021/11/11 12:17:03;;;;;;;9.82;3.90;;;;;;;;;;5109794;28;20055;-64
2021/11/11 12:39:23;;;;;;;6.70;4.07;;;;;;;;;;5109036;28;20038;-64
2021/11/11 12:41:59;;;;;;;9.43;4.15;;;;;;;;;;5108680;28;20028;-64
2021/11/11 12:44:25;;;;;;;8.52;3.65;;;;;;;;;;5108595;28;20065;-64
2021/11/11 12:46:51;;;;;;;9.38;3.88;;;;;;;;;;5109134;28;20024;-64
2021/11/11 12:49:29;;;;;;;11.60;4.47;;;;;;;;;;5109450;28;20115;-64
2021/11/11 12:52:14;;;;;;;7.50;4.20;;;;;;;;;;5111164;28;20143;-64
2021/11/11 12:54:41;;;;;;;8.88;4.30;;;;;;;;;;5108630;28;20032;-64
2021/11/11 12:57:08;;;;;;;8.27;4.30;;;;;;;;;;5110770;28;20023;-64
2021/11/11 12:59:36;;;;;;;8.15;4.13;;;;;;;;;;5108977;28;20032;-64
2021/11/11 13:02:06;;;;;;;13.75;4.57;;;;;;;;;;5108739;28;20102;-64
2021/11/11 13:05:05;;;;;;;8.48;4.85;;;;;;;;;;5109053;28;20120;-64
2021/11/11 13:07:32;;;;;;;10.18;4.50;;;;;;;;;;5050948;28;20452;-64
2021/11/11 13:10:04;;;;;;;11.00;4.50;;;;;;;;;;5109406;28;20042;-64
2021/11/11 13:12:30;;;;;;;10.57;4.80;;;;;;;;;;5110969;28;20851;-64
2021/11/11 13:14:58;;;;;;;9.00;4.55;;;;;;;;;;5108511;28;20020;-64
2021/11/11 13:17:26;;;;;;;9.32;4.50;;;;;;;;;;5108808;28;20062;-64
2021/11/11 13:19:54;;;;;;;;;;;;;;;;;;5108634;28;20059;-64
2021/11/11 13:22:24;;;;;;;10.52;5.38;;;;;;;;;;5108750;28;19990;-64
2021/11/11 14:01:12;;;;;;;13.40;5.35;;;;;;;;;;5114214;28;20520;-64
2021/11/11 14:04:15;;;;;;;11.82;6.25;;;;;;;;;;5111646;28;20024;-64
2021/11/11 16:24:11;;;;;;;21.50;12.02;;;;;;;;;;5097127;28;20032;-66
2021/11/11 16:26:37;;;;;;;21.52;10.27;;;;;;;;;;5103124;28;20537;-65
2021/11/11 16:29:03;;;;;;;26.98;12.98;;;;;;;;;;5103403;28;20434;-66
2021/11/11 16:31:30;;;;;;;18.58;10.23;;;;;;;;;;5106243;28;20048;-67
2021/11/11 16:33:58;;;;;;;21.13;10.65;;;;;;;;;;5097215;28;20493;-66
2021/11/11 16:36:24;;;;;;;20.48;10.93;;;;;;;;;;5103782;28;20031;-66
2021/11/11 16:38:51;;;;;;;23.45;11.50;;;;;;;;;;5106655;28;20512;-66
2021/11/11 16:41:18;;;;;;;28.13;13.05;;;;;;;;;;5106110;28;20027;-66
2021/11/11 16:43:45;;;;;;;25.83;12.65;;;;;;;;;;5106319;28;20133;-65
2021/11/11 16:46:11;;;;;;;22.52;12.27;;;;;;;;;;5094785;28;20027;-65
2021/11/11 16:48:39;;;;;;;22.13;11.55;;;;;;;;;;5107002;28;20024;-65
2021/11/11 16:51:06;;;;;;;25.27;14.90;;;;;;;;;;5106899;28;20156;-65
2021/11/11 16:53:32;;;;;;;29.58;16.40;;;;;;;;;;5108052;27;20497;-65
2021/11/11 16:55:59;;;;;;;29.25;14.27;;;;;;;;;;5090089;28;20023;-65
2021/11/11 16:58:25;;;;;;;23.73;14.05;;;;;;;;;;5102421;28;20062;-65
2021/11/11 17:00:51;;;;;;;24.42;10.52;;;;;;;;;;5109467;28;20447;-65
2021/11/11 17:03:18;;;;;;;17.95;9.73;;;;;;;;;;5110713;28;20038;-65
2021/11/11 17:05:44;;;;;;;21.52;10.68;;;;;;;;;;5104865;28;20024;-65
2021/11/11 17:08:10;;;;;;;22.55;12.10;;;;;;;;;;5095198;28;20028;-65
2021/11/11 17:10:37;;;;;;;21.13;11.75;;;;;;;;;;5102420;28;20471;-65
2021/11/11 17:13:03;;;;;;;23.98;11.82;;;;;;;;;;5107939;28;20053;-65
2021/11/11 17:15:32;;;;;;;22.38;11.45;;;;;;;;;;5111195;28;20030;-65
2021/11/11 17:18:00;;;;;;;29.77;13.00;;;;;;;;;;5096317;28;20055;-65
2021/11/11 17:20:26;;;;;;;25.83;13.43;;;;;;;;;;5107266;28;20027;-65
2021/11/11 17:23:01;;;;;;;20.60;11.77;;;;;;;;;;5106125;28;20045;-65
2021/11/11 17:30:49;;;;;;;32.40;19.15;;;;;;;;;;5079994;28;20539;-66
2021/11/11 17:33:17;;;;;;;31.70;16.30;;;;;;;;;;5102799;28;20138;-66
2021/11/11 17:35:43;;;;;;;29.10;16.88;;;;;;;;;;5097546;28;20146;-66
2021/11/11 17:38:10;;;;;;;29.05;16.13;;;;;;;;;;5098364;28;20440;-66
2021/11/11 17:40:37;;;;;;;27.92;16.48;;;;;;;;;;5104958;28;20055;-66
2021/11/11 17:43:04;;;;;;;28.13;15.93;;;;;;;;;;5108553;28;20419;-67
2021/11/11 17:45:36;;;;;;;27.33;12.45;;;;;;;;;;5111016;28;20852;-65
2021/11/11 17:48:04;;;;;;;23.58;12.73;;;;;;;;;;5108304;28;20020;-66
2021/11/11 17:50:40;;;;;;;17.33;10.55;;;;;;;;;;5108161;28;20479;-66
2021/11/11 17:53:11;;;;;;;29.75;16.50;;;;;;;;;;5108194;28;20437;-66
2021/11/11 17:55:41;;;;;;;33.45;21.25;;;;;;;;;;5108501;28;20209;-68
2021/11/11 17:58:08;;;;;;;29.92;18.38;;;;;;;;;;5108766;28;20085;-66
2021/11/11 18:00:37;;;;;;;40.05;21.35;;;;;;;;;;5107874;28;20024;-67
2021/11/11 18:03:03;;;;;;;35.05;20.20;;;;;;;;;;5101159;28;20038;-67
2021/11/11 18:05:30;;;;;;;37.40;21.02;;;;;;;;;;5104020;28;20035;-67
2021/11/11 18:08:03;;;;;;;30.45;16.15;;;;;;;;;;5103684;28;20029;-67
2021/11/11 18:10:31;;;;;;;28.08;16.90;;;;;;;;;;5100392;28;20111;-63
2021/11/11 18:13:02;;;;;;;25.42;15.70;;;;;;;;;;5102699;28;20023;-64
2021/11/11 18:15:34;;;;;;;30.75;16.58;;;;;;;;;;5103737;28;20771;-64
2021/11/11 18:18:00;;;;;;;33.58;18.67;;;;;;;;;;5104895;28;20525;-65
2021/11/11 18:20:27;;;;;;;41.65;22.30;;;;;;;;;;5104222;28;20064;-65
2021/11/11 18:22:54;;;;;;;29.02;17.52;;;;;;;;;;5103350;28;20041;-66
2021/11/11 18:25:21;;;;;;;38.55;24.58;;;;;;;;;;5101753;28;20024;-65
2021/11/11 18:27:47;;;;;;;37.97;26.02;;;;;;;;;;5100960;28;20024;-65
2021/11/11 18:32:58;;;;;;;37.22;21.13;;;;;;;;;;5103981;28;20495;-64